Flight Track Log - Related Links

Times and Time Zones

All times are in EDT time to prevent confusion due to time zone crossing. See the VNR160 flight status page for this flight to view local times or setup timezone preferences in your user account.

Time Position Orientation Groundspeed Altitude Reporting Facility
EDT Latitude Longitude Course Direction KTS MPH feet Rate Location/Type
Thu 05:23:51 PM 41.4289 -81.9292 316° Northwest 166 191 4,600  Level Cleveland Center
Thu 05:24:51 PM 41.4892 -81.9303 359° North 166 191 6,600 2,100 Climbing Cleveland Center
Thu 05:25:51 PM 41.5439 -81.8814 34° Northeast 213 245 8,800 2,150 Climbing Cleveland Center
Thu 05:26:51 PM 41.5886 -81.8131 49° Northeast 226 260 10,900 1,600 Climbing Cleveland Center
Thu 05:27:51 PM 41.6394 -81.7306 50° Northeast 259 298 12,000 1,550 Climbing Cleveland Center
Thu 05:28:00 PM 41.8335 -81.3825 71° East  Level FlightAware Approximate
Thu 05:28:51 PM 41.6881 -81.6508 51° Northeast 278 320 14,000  Level Cleveland Center
Thu 05:29:51 PM 41.7389 -81.5739 48° Northeast 278 320 15,900 1,650 Climbing Cleveland Center
Thu 05:30:51 PM 41.7875 -81.5022 48° Northeast 283 326 17,300 1,400 Climbing Cleveland Center
Thu 05:31:51 PM 41.8381 -81.4108 53° Northeast 288 331 18,700 1,500 Climbing Cleveland Center
Thu 05:32:51 PM 41.8578 -81.2969 77° East 296 341 20,300 1,550 Climbing Cleveland Center
Thu 05:33:51 PM 41.8772 -81.1828 77° East 314 361 21,800 1,400 Climbing Cleveland Center
Thu 05:34:51 PM 41.8964 -81.0631 78° East 322 371 23,100 1,400 Climbing Cleveland Center
Thu 05:35:51 PM 41.9156 -80.9375 78° East 336 387 24,600 1,450 Climbing Cleveland Center
Thu 05:36:51 PM 41.9369 -80.7981 78° East 336 387 26,000 1,450 Climbing Cleveland Center
Thu 05:37:51 PM 41.9578 -80.6725 77° East 336 387 27,500 1,150 Climbing Cleveland Center
Thu 05:38:51 PM 41.9786 -80.5442 78° East 336 387 28,300 1,150 Climbing Cleveland Center
Thu 05:39:51 PM 41.9994 -80.4128 78° East 351 404 29,800 1,150 Climbing Cleveland Center
Thu 05:40:51 PM 42.0181 -80.2786 79° East 357 411 30,600 600 Climbing Cleveland Center
Thu 05:41:51 PM 42.0406 -80.1414 78° East 362 417 31,000 200 Climbing Cleveland Center
Thu 05:42:51 PM 42.0628 -79.9958 78° East 382 440 31,000  Level Cleveland Center
Thu 05:43:51 PM 42.0808 -79.8614 80° East 394 453 31,000  Level Cleveland Center
Thu 05:44:51 PM 42.1047 -79.7072 78° East 404 465 31,000  Level Cleveland Center
Thu 05:45:51 PM 42.1283 -79.5528 78° East 411 473 31,000  Level Cleveland Center
Thu 05:46:51 PM 42.1497 -79.3931 80° East 416 479 31,000  Level Cleveland Center
Thu 05:47:51 PM 42.1731 -79.2356 79° East 421 484 31,000  Level Cleveland Center
Thu 05:48:51 PM 42.1939 -79.0753 80° East 426 490 31,000  Level Cleveland Center
Thu 05:49:51 PM 42.2186 -78.9011 79° East 432 497 31,000  Level Cleveland Center
Thu 05:50:51 PM 42.2392 -78.7433 80° East 432 497 31,000  Level Cleveland Center
Thu 05:51:51 PM 42.2572 -78.5800 81° East 432 497 31,000  Level Cleveland Center
Thu 05:52:51 PM 42.2794 -78.4194 79° East 432 497 31,000  Level Cleveland Center
Thu 05:53:51 PM 42.2992 -78.2558 81° East 432 497 31,000  Level Cleveland Center
Thu 05:54:51 PM 42.3167 -78.0953 82° East 432 497 31,000  Level Cleveland Center
Thu 05:55:51 PM 42.3361 -77.9372 80° East 432 497 31,000  Level Cleveland Center
Thu 05:56:51 PM 42.3553 -77.7761 81° East 432 497 31,000  Level Cleveland Center
Thu 05:57:51 PM 42.3742 -77.6178 81° East 427 491 31,000  Level Cleveland Center
Thu 05:58:51 PM 42.3914 -77.4764 81° East 427 491 31,000  Level Cleveland Center
Thu 06:00:28 PM 42.4186 -77.2164 82° East 434 499 31,000  Level Boston Center
Thu 06:01:28 PM 42.4358 -77.0544 82° East 434 499 31,000  Level Boston Center
Thu 06:02:28 PM 42.4547 -76.8983 81° East 429 494 31,000  Level Boston Center
Thu 06:03:28 PM 42.4711 -76.7389 82° East 424 488 31,000  Level Boston Center
Thu 06:04:28 PM 42.4897 -76.5797 81° East 424 488 31,000  Level Boston Center
Thu 06:05:28 PM 42.5058 -76.4200 82° East 424 488 31,000 -50 Level Boston Center
Thu 06:06:28 PM 42.5217 -76.2633 82° East 424 488 30,900 -650 Descending Boston Center
Thu 06:07:28 PM 42.5044 -76.0875 98° East 424 488 29,700 -1,100 Descending Boston Center
Thu 06:08:28 PM 42.4631 -75.9417 111° Southeast 412 474 28,700 -1,000 Descending Boston Center
Thu 06:09:28 PM 42.4239 -75.7931 110° East 412 474 27,700 -1,100 Descending Boston Center
Thu 06:10:28 PM 42.3822 -75.6503 112° Southeast 412 474 26,500 -1,500 Descending Boston Center
Thu 06:11:28 PM 42.3422 -75.5133 112° Southeast 407 468 24,700 -1,550 Descending Boston Center
Thu 06:12:28 PM 42.3075 -75.4019 113° Southeast 396 456 23,400 -1,500 Descending Boston Center
Thu 06:13:28 PM 42.2675 -75.2514 110° East 396 456 21,700 -1,800 Descending Boston Center
Thu 06:14:28 PM 42.2231 -75.1092 113° Southeast 377 434 19,800 -1,750 Descending Boston Center
Thu 06:15:28 PM 42.1844 -74.9814 112° Southeast 366 421 18,200 -900 Descending Boston Center
Thu 06:16:28 PM 42.1369 -74.8647 119° Southeast 361 415 18,000 -100 Descending Boston Center
Thu 06:17:28 PM 42.0892 -74.7508 119° Southeast 354 407 18,000 -350 Level Boston Center
Thu 06:18:28 PM 42.0456 -74.6431 119° Southeast 354 407 17,300 -1,000 Descending Boston Center
Thu 06:19:28 PM 41.9936 -74.5156 119° Southeast 354 407 16,000 -1,200 Descending Boston Center
Thu 06:20:28 PM 41.9517 -74.4219 121° Southeast 341 392 14,900 -1,200 Descending Boston Center
Thu 06:21:28 PM 41.9017 -74.3033 119° Southeast 341 392 13,600 -1,250 Descending Boston Center
Thu 06:22:28 PM 41.8594 -74.2072 121° Southeast 341 392 12,400 -1,200 Descending Boston Center
Thu 06:23:28 PM 41.8108 -74.1058 123° Southeast 334 384 11,200 -1,100 Descending Boston Center
Thu 06:24:28 PM 41.7581 -74.0014 124° Southeast 316 364 10,200 -1,050 Descending Boston Center
Thu 06:25:28 PM 41.7156 -73.9197 125° Southeast 310 357 9,100 -1,000 Descending Boston Center
Thu 06:26:28 PM 41.6539 -73.8375 135° Southeast 298 343 8,200 -800 Descending Boston Center
Thu 06:27:28 PM 41.5872 -73.8444 184° South 256 295 7,500 -733 Descending Boston Center
Thu 06:28:39 PM 41.4833 -73.8667 189° South 274 315 6,600 -779 Descending New York TRACON
Thu 06:29:39 PM 41.4167 -73.8667 180° South 252 290 5,800 -1,000 Descending New York TRACON
Thu 06:30:39 PM 41.3667 -73.8167 143° Southeast 264 304 4,600 -1,000 Descending New York TRACON
Thu 06:31:39 PM 41.3000 -73.7667 151° Southeast 260 299 3,800 -800 Descending New York TRACON
Thu 06:32:39 PM 41.2333 -73.7000 143° Southeast 253 291 3,000 -400 Descending New York TRACON
Thu 06:33:39 PM 41.2000 -73.6667 143° Southeast 190 219 3,000  Level New York TRACON
Thu 06:34:39 PM 41.1500 -73.6333 153° Southeast 195 224 3,000 -300 Level New York TRACON
Thu 06:35:39 PM 41.1000 -73.5833 143° Southeast 201 231 2,400 -500 Descending New York TRACON
Thu 06:36:39 PM 41.0667 -73.5500 143° Southeast 194 223 2,000 -200 Descending New York TRACON
Thu 06:37:39 PM 41.0167 -73.5000 143° Southeast 188 216 2,000  Level New York TRACON
Thu 06:38:39 PM 40.9833 -73.5333 217° Southwest 182 209 2,000  Level New York TRACON
Thu 06:39:39 PM 40.9833 -73.6000 270° West 169 194 2,000  Level New York TRACON

Login

Don't have an account? Register now (free) for customized features, flight alerts, and more!